createdAt,value
2018-05-01T00:01:37.349Z,83.57
2018-05-01T00:04:04.870Z,83.64
2018-05-01T00:06:32.829Z,83.91
2018-05-01T00:09:00.485Z,83.77
2018-05-01T00:11:28.026Z,83.87
2018-05-01T00:13:55.590Z,83.81
2018-05-01T00:16:23.113Z,83.83
2018-05-01T00:18:50.802Z,83.91
2018-05-01T00:21:18.322Z,83.73
2018-05-01T00:23:45.846Z,83.82
2018-05-01T00:26:13.385Z,83.98
2018-05-01T00:28:40.901Z,83.92
2018-05-01T00:31:08.446Z,84.18
2018-05-01T00:33:35.985Z,84.18
2018-05-01T00:36:03.646Z,83.79
2018-05-01T00:38:31.161Z,84.46
2018-05-01T00:40:58.677Z,84.25
2018-05-01T00:43:26.230Z,83.54
2018-05-01T00:45:54.101Z,83.01
2018-05-01T00:48:21.627Z,82.75
2018-05-01T00:50:49.137Z,82.71
2018-05-01T00:53:16.819Z,82.59
2018-05-01T00:55:44.329Z,82.91
2018-05-01T00:58:11.847Z,82.70
2018-05-01T01:00:39.471Z,82.20
2018-05-01T01:03:06.993Z,82.14
2018-05-01T01:05:34.697Z,82.42
2018-05-01T01:08:02.213Z,82.56
2018-05-01T01:10:29.914Z,82.11
2018-05-01T01:12:57.913Z,82.33
2018-05-01T01:15:25.425Z,82.74
2018-05-01T01:17:52.936Z,82.41
2018-05-01T01:20:20.478Z,83.30
2018-05-01T01:22:47.993Z,83.01
2018-05-01T01:25:15.941Z,82.83
2018-05-01T01:27:43.451Z,82.57
2018-05-01T01:30:10.961Z,82.65
2018-05-01T01:32:38.548Z,83.29
2018-05-01T01:35:05.514Z,83.04
2018-05-01T01:37:32.569Z,83.15
2018-05-01T01:39:59.541Z,83.06
2018-05-01T01:42:26.509Z,83.31
2018-05-01T01:44:53.505Z,83.86
2018-05-01T01:47:20.480Z,84.10
2018-05-01T01:49:47.622Z,84.12
2018-05-01T01:52:14.589Z,84.24
2018-05-01T01:54:41.561Z,84.04
2018-05-01T01:57:08.567Z,84.12
2018-05-01T01:59:35.535Z,84.67
2018-05-01T02:02:02.525Z,84.25
2018-05-01T02:04:29.497Z,83.83
2018-05-01T02:06:56.507Z,84.19
2018-05-01T02:09:23.477Z,84.46
2018-05-01T02:11:50.487Z,84.42
2018-05-01T02:14:17.477Z,84.50
2018-05-01T02:16:44.469Z,83.82
2018-05-01T02:19:11.441Z,84.09
2018-05-01T02:21:38.474Z,84.54
2018-05-01T02:24:05.450Z,84.62
2018-05-01T02:26:32.424Z,84.84
2018-05-01T02:28:59.421Z,85.24
2018-05-01T02:31:26.398Z,85.19
2018-05-01T02:33:53.403Z,84.88
2018-05-01T02:36:20.383Z,84.87
2018-05-01T02:38:47.381Z,85.01
2018-05-01T02:41:14.442Z,84.78
2018-05-01T02:43:41.383Z,84.93
2018-05-01T02:46:08.382Z,85.07
2018-05-01T02:48:35.353Z,85.25
2018-05-01T02:51:02.383Z,85.19
2018-05-01T02:53:29.357Z,85.45
2018-05-01T02:55:56.341Z,85.21
2018-05-01T02:58:23.378Z,85.13
2018-05-01T03:00:50.354Z,85.34
2018-05-01T03:03:17.335Z,85.62
2018-05-01T03:05:44.330Z,85.47
2018-05-01T03:08:11.318Z,85.61
2018-05-01T03:10:38.486Z,85.57
2018-05-01T03:13:05.466Z,85.72
2018-05-01T03:15:32.437Z,85.66
2018-05-01T03:17:59.885Z,85.79
2018-05-01T03:20:26.886Z,85.85
2018-05-01T03:22:53.857Z,86.37
2018-05-01T03:25:20.944Z,86.41
2018-05-01T03:27:47.899Z,86.35
2018-05-01T03:30:14.865Z,86.43
2018-05-01T03:32:41.861Z,86.40
2018-05-01T03:35:08.864Z,86.76
2018-05-01T03:37:35.834Z,86.72
2018-05-01T03:40:03.336Z,86.87
2018-05-01T03:42:30.350Z,86.87
2018-05-01T03:44:57.328Z,86.58
2018-05-01T03:47:24.329Z,86.62
2018-05-01T03:49:51.329Z,86.35
2018-05-01T03:52:18.305Z,86.46
2018-05-01T03:54:45.785Z,86.41
2018-05-01T03:57:12.772Z,86.18
2018-05-01T03:59:39.746Z,86.24
2018-05-01T04:02:06.757Z,86.14
2018-05-01T04:04:33.794Z,85.83
2018-05-01T04:07:00.765Z,85.82
2018-05-01T04:09:27.737Z,86.16
2018-05-01T04:11:54.743Z,86.07
2018-05-01T04:14:21.737Z,86.18
2018-05-01T04:16:48.747Z,86.14
2018-05-01T04:19:15.975Z,86.29
2018-05-01T04:21:42.981Z,86.30
2018-05-01T04:24:09.977Z,86.25
2018-05-01T04:26:36.983Z,86.68
2018-05-01T04:29:03.978Z,86.96
2018-05-01T04:31:30.973Z,86.73
2018-05-01T04:33:57.937Z,86.80
2018-05-01T04:36:25.045Z,86.60
2018-05-01T04:38:52.018Z,86.80
2018-05-01T04:41:18.994Z,86.36
2018-05-01T04:43:46.190Z,86.71
2018-05-01T04:46:13.169Z,86.80
2018-05-01T04:48:40.148Z,86.49
2018-05-01T04:51:07.206Z,86.89
2018-05-01T04:53:34.186Z,86.74
2018-05-01T04:56:01.162Z,86.90
2018-05-01T04:58:28.372Z,87.20
2018-05-01T05:00:55.354Z,87.13
2018-05-01T05:03:22.336Z,87.13
2018-05-01T05:05:49.344Z,87.12
2018-05-01T05:08:16.373Z,86.77
2018-05-01T05:10:43.377Z,86.36
2018-05-01T05:13:10.354Z,86.60
2018-05-01T05:15:37.372Z,86.91
2018-05-01T05:18:04.378Z,86.77
2018-05-01T05:20:31.349Z,86.64
2018-05-01T05:22:58.570Z,86.27
2018-05-01T05:25:25.565Z,86.30
2018-05-01T05:27:52.537Z,86.10
2018-05-01T05:30:19.534Z,86.36
2018-05-01T05:32:46.525Z,86.21
2018-05-01T05:35:13.554Z,86.24
2018-05-01T05:37:40.526Z,86.44
2018-05-01T05:40:07.502Z,86.89
2018-05-01T05:42:34.506Z,86.78
2018-05-01T05:45:01.534Z,87.10
2018-05-01T05:47:28.515Z,86.78
2018-05-01T05:49:55.489Z,86.47
2018-05-01T05:52:22.607Z,86.66
2018-05-01T05:54:49.580Z,86.77
2018-05-01T05:57:16.557Z,87.09
2018-05-01T05:59:43.575Z,87.05
2018-05-01T06:02:10.549Z,86.73
2018-05-01T06:04:37.526Z,87.21
2018-05-01T06:07:04.570Z,87.47
2018-05-01T06:09:31.554Z,86.96
2018-05-01T06:11:58.531Z,87.33
2018-05-01T06:14:25.934Z,87.24
2018-05-01T06:16:52.918Z,86.75
2018-05-01T06:19:20.779Z,87.25
2018-05-01T06:21:47.860Z,87.23
2018-05-01T06:24:14.798Z,87.41
2018-05-01T06:26:41.798Z,87.21
2018-05-01T06:29:08.806Z,87.29
2018-05-01T06:31:35.815Z,87.36
2018-05-01T06:34:02.815Z,86.99
2018-05-01T06:36:29.791Z,87.29
2018-05-01T06:38:56.795Z,87.19
2018-05-01T06:41:23.778Z,87.43
2018-05-01T06:43:50.876Z,87.33
2018-05-01T06:46:17.794Z,87.38
2018-05-01T06:48:44.769Z,86.96
2018-05-01T06:51:11.778Z,87.38
2018-05-01T06:53:38.747Z,87.46
2018-05-01T06:56:06.276Z,87.06
2018-05-01T06:58:34.150Z,87.09
2018-05-01T07:01:01.125Z,86.80
2018-05-01T07:03:28.107Z,86.69
2018-05-01T07:05:55.114Z,86.90
2018-05-01T07:08:22.094Z,86.29
2018-05-01T07:10:49.166Z,86.55
2018-05-01T07:13:16.197Z,86.85
2018-05-01T07:15:43.360Z,86.63
2018-05-01T07:18:10.333Z,86.59
2018-05-01T07:20:37.305Z,86.64
2018-05-01T07:23:04.333Z,86.79
2018-05-01T07:25:31.408Z,86.07
2018-05-01T07:27:58.422Z,86.29
2018-05-01T07:30:25.459Z,86.18
2018-05-01T07:32:52.429Z,86.71
2018-05-01T07:35:19.398Z,86.39
2018-05-01T07:37:46.458Z,86.44
2018-05-01T07:40:13.440Z,86.67
2018-05-01T07:42:40.444Z,86.48
2018-05-01T07:45:07.447Z,85.69
2018-05-01T07:47:34.422Z,86.04
2018-05-01T07:50:01.459Z,86.02
2018-05-01T07:52:28.429Z,85.99
2018-05-01T07:54:55.433Z,85.94
2018-05-01T07:57:22.593Z,85.96
2018-05-01T07:59:49.871Z,85.93
2018-05-01T08:02:16.918Z,86.71
2018-05-01T08:04:43.965Z,86.33
2018-05-01T08:07:10.956Z,85.57
2018-05-01T08:09:38.065Z,85.55
2018-05-01T08:12:05.303Z,85.12
2018-05-01T08:14:32.261Z,85.01
2018-05-01T08:16:59.233Z,85.31
2018-05-01T08:19:26.234Z,84.72
2018-05-01T08:21:53.213Z,84.56
2018-05-01T08:24:20.271Z,84.86
2018-05-01T08:26:47.229Z,85.03
2018-05-01T08:29:14.416Z,84.92
2018-05-01T08:31:41.765Z,85.11
2018-05-01T08:34:08.737Z,84.88
2018-05-01T08:36:36.327Z,84.50
2018-05-01T08:39:03.311Z,84.43
2018-05-01T08:41:30.905Z,84.51
2018-05-01T08:43:57.902Z,84.72
2018-05-01T08:46:24.878Z,84.58
2018-05-01T08:48:51.873Z,84.83
2018-05-01T08:51:18.837Z,84.18
2018-05-01T08:53:45.836Z,84.45
2018-05-01T08:56:12.849Z,84.43
2018-05-01T08:58:39.840Z,83.73
2018-05-01T09:01:06.858Z,83.56
2018-05-01T09:03:33.833Z,84.26
2018-05-01T09:06:00.805Z,84.21
2018-05-01T09:08:27.797Z,83.73
2018-05-01T09:10:54.938Z,84.20
2018-05-01T09:13:21.915Z,83.34
2018-05-01T09:15:48.906Z,83.34
2018-05-01T09:18:16.024Z,82.76
2018-05-01T09:20:42.921Z,83.62
2018-05-01T09:23:09.965Z,82.87
2018-05-01T09:25:37.004Z,83.45
2018-05-01T09:28:03.949Z,83.20
2018-05-01T09:30:30.977Z,83.07
2018-05-01T09:32:57.968Z,83.09
2018-05-01T09:35:24.967Z,82.48
2018-05-01T09:37:51.966Z,82.73
2018-05-01T09:40:18.976Z,82.28
2018-05-01T09:42:46.323Z,82.96
2018-05-01T09:45:13.298Z,82.89
2018-05-01T09:47:40.384Z,82.81
2018-05-01T09:50:07.396Z,83.10
2018-05-01T09:52:34.910Z,83.15
2018-05-01T09:55:02.585Z,83.01
2018-05-01T09:57:30.155Z,83.16
2018-05-01T09:59:57.670Z,82.98
2018-05-01T10:02:25.330Z,82.98
2018-05-01T10:04:52.865Z,83.76
2018-05-01T10:07:20.393Z,84.71
2018-05-01T10:09:47.939Z,84.86
2018-05-01T10:12:15.472Z,85.01
2018-05-01T10:14:43.026Z,84.73
2018-05-01T10:17:10.575Z,84.77
2018-05-01T10:19:38.095Z,84.09
2018-05-01T10:22:05.629Z,84.44
2018-05-01T10:24:33.329Z,84.34
2018-05-01T10:27:00.912Z,84.76
2018-05-01T10:29:28.452Z,84.59
2018-05-01T10:31:56.139Z,83.76
2018-05-01T10:34:23.653Z,84.04
2018-05-01T10:36:51.402Z,84.32
2018-05-01T10:39:18.922Z,84.27
2018-05-01T10:41:46.439Z,83.45
2018-05-01T10:44:14.024Z,83.96
2018-05-01T10:46:41.969Z,83.04
2018-05-01T10:49:09.481Z,82.63
2018-05-01T10:51:37.025Z,82.44
2018-05-01T10:54:04.586Z,81.73
2018-05-01T10:56:32.097Z,81.07
2018-05-01T10:58:59.633Z,80.80
2018-05-01T11:01:27.155Z,80.13
2018-05-01T11:03:55.114Z,80.26
2018-05-01T11:06:22.642Z,79.37
2018-05-01T11:08:50.168Z,79.21
2018-05-01T11:11:17.744Z,80.22
2018-05-01T11:13:45.271Z,79.13
2018-05-01T11:16:12.797Z,78.43
2018-05-01T11:18:40.766Z,79.52
2018-05-01T11:21:08.286Z,79.45
2018-05-01T11:23:35.815Z,79.21
2018-05-01T11:26:03.554Z,79.26
2018-05-01T11:28:31.116Z,78.57
2018-05-01T11:30:58.574Z,76.64
2018-05-01T11:33:26.142Z,73.76
2018-05-01T11:35:54.083Z,75.72
2018-05-01T11:38:21.637Z,75.48
2018-05-01T11:40:49.169Z,74.00
2018-05-01T11:43:16.814Z,72.61
2018-05-01T11:45:44.334Z,73.63
2018-05-01T11:48:11.854Z,69.74
2018-05-01T11:50:39.519Z,68.08
2018-05-01T11:53:07.030Z,65.92
2018-05-01T11:55:34.542Z,66.04
2018-05-01T11:58:02.093Z,63.64
2018-05-01T12:00:29.618Z,63.69
2018-05-01T12:02:57.206Z,62.51
2018-05-01T12:05:24.713Z,63.92
2018-05-01T12:07:52.226Z,63.39
2018-05-01T12:10:19.771Z,61.30
2018-05-01T12:12:47.294Z,62.07
2018-05-01T12:15:14.834Z,62.99
2018-05-01T12:17:42.355Z,60.34
2018-05-01T12:20:09.904Z,60.99
2018-05-01T12:22:37.442Z,63.96
2018-05-01T12:25:05.134Z,60.68
2018-05-01T12:27:32.646Z,59.61
2018-05-01T12:30:00.249Z,59.09
2018-05-01T12:32:27.740Z,59.37
2018-05-01T12:34:55.260Z,59.48
2018-05-01T12:37:23.005Z,58.96
2018-05-01T12:39:50.516Z,58.39
2018-05-01T12:42:18.021Z,56.08
2018-05-01T12:44:45.582Z,54.51
2018-05-01T12:47:13.102Z,54.81
2018-05-01T12:49:40.643Z,54.31
2018-05-01T12:52:08.157Z,54.57
2018-05-01T12:54:35.717Z,53.95
2018-05-01T12:57:03.238Z,52.67
2018-05-01T12:59:30.750Z,55.43
2018-05-01T13:01:58.310Z,54.31
2018-05-01T13:04:25.821Z,51.48
2018-05-01T13:06:53.374Z,52.78
2018-05-01T13:09:21.051Z,51.41
2018-05-01T13:11:48.579Z,51.27
2018-05-01T13:14:16.089Z,51.87
2018-05-01T13:16:43.771Z,53.48
2018-05-01T13:19:11.311Z,53.54
2018-05-01T13:21:38.829Z,51.28
2018-05-01T13:24:06.379Z,52.66
2018-05-01T13:26:33.906Z,53.76
2018-05-01T13:29:01.467Z,51.64
2018-05-01T13:31:28.990Z,50.64
2018-05-01T13:33:56.507Z,49.63
2018-05-01T13:36:24.058Z,48.96
2018-05-01T13:38:51.578Z,49.56
2018-05-01T13:41:19.157Z,49.54
2018-05-01T13:43:46.743Z,49.49
2018-05-01T13:46:14.219Z,49.11
2018-05-01T13:48:41.770Z,46.27
2018-05-01T13:51:09.295Z,48.08
2018-05-01T13:53:36.841Z,46.21
2018-05-01T13:56:04.357Z,46.61
2018-05-01T13:58:32.110Z,46.31
2018-05-01T14:00:59.635Z,44.67
2018-05-01T14:03:27.150Z,47.40
2018-05-01T14:05:54.695Z,47.41
2018-05-01T14:08:22.229Z,44.87
2018-05-01T14:10:49.747Z,46.78
2018-05-01T14:13:17.328Z,45.04
2018-05-01T14:15:44.864Z,46.05
2018-05-01T14:18:12.373Z,45.20
2018-05-01T14:20:40.350Z,46.62
2018-05-01T14:23:07.854Z,48.16
2018-05-01T14:25:35.401Z,46.58
2018-05-01T14:28:02.933Z,46.65
2018-05-01T14:30:30.445Z,47.01
2018-05-01T14:32:58.117Z,47.45
2018-05-01T14:35:25.630Z,43.54
2018-05-01T14:37:53.145Z,43.70
2018-05-01T14:40:20.681Z,43.33
2018-05-01T14:42:48.198Z,42.63
2018-05-01T14:45:15.895Z,42.34
2018-05-01T14:47:43.405Z,42.88
2018-05-01T14:50:10.959Z,42.13
2018-05-01T14:52:38.475Z,43.07
2018-05-01T14:55:05.999Z,43.86
2018-05-01T14:57:33.644Z,44.76
2018-05-01T15:00:01.326Z,45.37
2018-05-01T15:02:28.867Z,45.48
2018-05-01T15:04:56.394Z,42.99
2018-05-01T15:07:23.929Z,44.12
2018-05-01T15:09:51.446Z,42.29
2018-05-01T15:12:19.391Z,42.56
2018-05-01T15:14:46.907Z,42.47
2018-05-01T15:17:14.438Z,42.57
2018-05-01T15:19:41.984Z,43.00
2018-05-01T15:22:09.502Z,44.23
2018-05-01T15:24:37.158Z,43.02
2018-05-01T15:27:04.693Z,43.13
2018-05-01T15:29:32.213Z,41.94
2018-05-01T15:31:59.766Z,42.18
2018-05-01T15:34:27.282Z,40.95
2018-05-01T15:36:54.795Z,44.72
2018-05-01T15:39:22.357Z,42.69
2018-05-01T15:41:49.871Z,43.29
2018-05-01T15:44:17.386Z,43.27
2018-05-01T15:46:44.920Z,44.35
2018-05-01T15:49:12.434Z,42.64
2018-05-01T15:51:40.022Z,45.07
2018-05-01T15:54:07.525Z,44.34
2018-05-01T15:56:36.002Z,45.00
2018-05-01T15:59:03.572Z,42.18
2018-05-01T16:01:31.085Z,43.84
2018-05-01T16:03:58.606Z,44.19
2018-05-01T16:06:26.179Z,43.73
2018-05-01T16:08:53.701Z,41.35
2018-05-01T16:11:21.214Z,43.65
2018-05-01T16:13:49.144Z,43.36
2018-05-01T16:16:16.657Z,41.83
2018-05-01T16:18:44.182Z,41.72
2018-05-01T16:21:11.727Z,40.75
2018-05-01T16:23:39.244Z,41.49
2018-05-01T16:26:06.792Z,40.42
2018-05-01T16:28:34.469Z,40.60
2018-05-01T16:31:01.982Z,40.11
2018-05-01T16:33:29.489Z,41.77
2018-05-01T16:35:57.036Z,40.65
2018-05-01T16:38:24.588Z,40.82
2018-05-01T16:40:52.137Z,42.29
2018-05-01T16:43:19.675Z,43.38
2018-05-01T16:45:47.353Z,43.39
2018-05-01T16:48:14.901Z,44.54
2018-05-01T16:50:42.451Z,44.84
2018-05-01T16:53:10.097Z,44.80
2018-05-01T16:55:37.622Z,45.74
2018-05-01T16:58:05.143Z,44.09
2018-05-01T17:00:32.685Z,44.02
2018-05-01T17:03:00.200Z,44.66
2018-05-01T17:05:27.866Z,43.52
2018-05-01T17:07:55.378Z,44.80
2018-05-01T17:10:22.893Z,44.30
2018-05-01T17:12:50.450Z,45.45
2018-05-01T17:15:18.013Z,45.74
2018-05-01T17:17:45.870Z,44.70
2018-05-01T17:20:13.391Z,44.28
2018-05-01T17:22:40.912Z,44.11
2018-05-01T17:25:08.467Z,44.24
2018-05-01T17:27:36.006Z,44.34
2018-05-01T17:30:03.597Z,44.71
2018-05-01T17:32:31.123Z,45.40
2018-05-01T17:34:58.660Z,45.51
2018-05-01T17:37:26.201Z,46.40
2018-05-01T17:39:53.708Z,45.21
2018-05-01T17:42:21.399Z,46.04
2018-05-01T17:44:48.904Z,46.37
2018-05-01T17:47:16.416Z,47.19
2018-05-01T17:49:43.949Z,48.33
2018-05-01T17:52:11.460Z,47.78
2018-05-01T17:54:39.043Z,49.16
2018-05-01T17:57:06.563Z,47.57
2018-05-01T17:59:34.074Z,48.83
2018-05-01T18:02:01.609Z,50.31
2018-05-01T18:04:29.118Z,48.77
2018-05-01T18:06:56.689Z,49.36
2018-05-01T18:09:24.201Z,52.54
2018-05-01T18:11:51.706Z,53.24
2018-05-01T18:14:19.241Z,55.27
2018-05-01T18:16:46.754Z,55.24
2018-05-01T18:19:14.297Z,53.85
2018-05-01T18:21:41.822Z,52.51
2018-05-01T18:24:09.495Z,53.76
2018-05-01T18:26:37.018Z,55.49
2018-05-01T18:29:04.531Z,55.05
2018-05-01T18:31:32.065Z,56.81
2018-05-01T18:33:59.578Z,57.00
2018-05-01T18:36:27.118Z,56.59
2018-05-01T18:38:54.650Z,56.89
2018-05-01T18:41:22.220Z,58.28
2018-05-01T18:43:49.750Z,60.65
2018-05-01T18:46:17.261Z,63.01
2018-05-01T18:48:45.222Z,63.03
2018-05-01T18:51:12.729Z,66.00
2018-05-01T18:53:40.241Z,67.39
2018-05-01T18:56:07.779Z,68.52
2018-05-01T18:58:35.294Z,69.32
2018-05-01T19:01:03.191Z,67.54
2018-05-01T19:03:30.722Z,69.22
2018-05-01T19:05:58.242Z,70.87
2018-05-01T19:08:25.914Z,72.04
2018-05-01T19:10:53.421Z,72.56
2018-05-01T19:13:20.947Z,72.55
2018-05-01T19:15:48.814Z,73.97
2018-05-01T19:18:16.333Z,74.39
2018-05-01T19:20:43.858Z,74.67
2018-05-01T19:23:11.429Z,75.53
2018-05-01T19:25:38.949Z,75.51
2018-05-01T19:28:06.476Z,75.68
2018-05-01T19:30:34.018Z,75.84
2018-05-01T19:33:01.543Z,74.44
2018-05-01T19:35:29.077Z,72.72
2018-05-01T19:37:56.594Z,74.20
2018-05-01T19:40:24.161Z,75.06
2018-05-01T19:42:51.673Z,75.84
2018-05-01T19:45:19.191Z,76.47
2018-05-01T19:47:46.763Z,77.27
2018-05-01T19:50:14.278Z,77.40
2018-05-01T19:52:41.839Z,77.86
2018-05-01T19:55:09.359Z,78.48
2018-05-01T19:57:36.897Z,78.62
2018-05-01T20:00:04.849Z,79.18
2018-05-01T20:02:32.357Z,77.71
2018-05-01T20:04:59.884Z,77.22
2018-05-01T20:07:27.430Z,78.02
2018-05-01T20:09:55.446Z,78.62
2018-05-01T20:12:22.953Z,78.74
2018-05-01T20:14:50.490Z,78.99
2018-05-01T20:17:18.027Z,78.04
2018-05-01T20:19:45.608Z,78.00
2018-05-01T20:22:13.121Z,77.60
2018-05-01T20:24:41.088Z,77.96
2018-05-01T20:27:08.607Z,77.86
2018-05-01T20:29:36.132Z,77.62
2018-05-01T20:32:03.665Z,78.04
2018-05-01T20:34:31.184Z,78.04
2018-05-01T20:36:59.062Z,78.39
2018-05-01T20:39:26.595Z,78.41
2018-05-01T20:41:54.109Z,78.48
2018-05-01T20:44:21.671Z,78.47
2018-05-01T20:46:49.225Z,78.69
2018-05-01T20:49:16.738Z,79.16
2018-05-01T20:51:44.402Z,78.97
2018-05-01T20:54:11.914Z,79.40
2018-05-01T20:56:39.434Z,79.61
2018-05-01T20:59:07.336Z,79.71
2018-05-01T21:01:34.871Z,79.80
2018-05-01T21:04:02.453Z,79.73
2018-05-01T21:06:29.993Z,79.44
2018-05-01T21:08:57.530Z,79.85
2018-05-01T21:11:25.071Z,80.08
2018-05-01T21:13:52.586Z,79.61
2018-05-01T21:16:20.117Z,79.57
2018-05-01T21:18:47.638Z,79.84
2018-05-01T21:21:15.189Z,79.79
2018-05-01T21:23:42.727Z,78.99
2018-05-01T21:26:10.306Z,79.27
2018-05-01T21:28:37.822Z,78.65
2018-05-01T21:31:05.399Z,78.07
2018-05-01T21:33:33.052Z,77.88
2018-05-01T21:36:00.580Z,78.07
2018-05-01T21:38:28.089Z,78.13
2018-05-01T21:40:55.622Z,78.15
2018-05-01T21:43:23.140Z,78.53
2018-05-01T21:45:50.687Z,78.45
2018-05-01T21:48:18.247Z,78.24
2018-05-01T21:50:46.253Z,78.57
2018-05-01T21:53:13.765Z,78.88
2018-05-01T21:55:41.284Z,78.99
2018-05-01T21:58:08.821Z,79.35
2018-05-01T22:00:36.333Z,79.36
2018-05-01T22:03:03.902Z,79.31
2018-05-01T22:05:31.410Z,79.23
2018-05-01T22:07:58.917Z,79.09
2018-05-01T22:10:26.479Z,78.76
2018-05-01T22:12:54.411Z,78.95
2018-05-01T22:15:21.930Z,79.34
2018-05-01T22:17:49.636Z,79.41
2018-05-01T22:20:17.173Z,79.63
2018-05-01T22:22:44.694Z,79.77
2018-05-01T22:25:12.234Z,80.00
2018-05-01T22:27:39.953Z,79.84
2018-05-01T22:30:07.469Z,80.13
2018-05-01T22:32:34.983Z,79.72
2018-05-01T22:35:02.518Z,80.02
2018-05-01T22:37:30.057Z,80.24
2018-05-01T22:39:57.727Z,80.37
2018-05-01T22:42:25.243Z,80.46
2018-05-01T22:44:52.768Z,80.74
2018-05-01T22:47:20.305Z,80.47
2018-05-01T22:49:47.843Z,80.28
2018-05-01T22:52:15.381Z,80.50
2018-05-01T22:54:42.904Z,80.72
2018-05-01T22:57:10.444Z,80.83
2018-05-01T22:59:37.958Z,80.94
2018-05-01T23:02:05.501Z,81.07
2018-05-01T23:04:33.017Z,81.08
2018-05-01T23:07:00.551Z,81.10
2018-05-01T23:09:28.290Z,81.07
2018-05-01T23:11:55.807Z,81.34
2018-05-01T23:14:23.334Z,80.82
2018-05-01T23:16:51.217Z,80.72
2018-05-01T23:19:18.734Z,80.14
2018-05-01T23:21:46.257Z,80.44
2018-05-01T23:24:13.818Z,80.65
2018-05-01T23:26:41.346Z,79.83
2018-05-01T23:29:08.876Z,76.84
2018-05-01T23:31:36.413Z,71.68
2018-05-01T23:34:03.949Z,68.09
2018-05-01T23:36:31.570Z,66.02
2018-05-01T23:38:59.172Z,62.31
2018-05-01T23:41:27.022Z,62.84
2018-05-01T23:43:54.545Z,62.93
2018-05-01T23:46:22.062Z,62.98
2018-05-01T23:48:49.621Z,61.07
2018-05-01T23:51:17.133Z,59.56
2018-05-01T23:53:44.797Z,59.22
2018-05-01T23:56:12.377Z,60.62
2018-05-01T23:58:39.919Z,59.56
